Map

Track Data

SID SEASON NUMBER BASIN SUBBASIN NAME ISO_TIME NATURE LAT LON WMO_WIND WMO_PRES WMO_AGENCY TRACK_TYPE DIST2LAND LANDFALL IFLAG USA_AGENCY USA_ATCF_ID USA_LAT USA_LON USA_RECORD USA_STATUS USA_WIND USA_PRES USA_SSHS USA_R34_NE USA_R34_SE USA_R34_SW USA_R34_NW USA_R50_NE USA_R50_SE USA_R50_SW USA_R50_NW USA_R64_NE USA_R64_SE USA_R64_SW USA_R64_NW USA_POCI USA_ROCI USA_RMW USA_EYE TOKYO_LAT TOKYO_LON TOKYO_GRADE TOKYO_WIND TOKYO_PRES TOKYO_R50_DIR TOKYO_R50_LONG TOKYO_R50_SHORT TOKYO_R30_DIR TOKYO_R30_LONG TOKYO_R30_SHORT TOKYO_LAND CMA_LAT CMA_LON CMA_CAT CMA_WIND CMA_PRES HKO_LAT HKO_LON HKO_CAT HKO_WIND HKO_PRES NEWDELHI_LAT NEWDELHI_LON NEWDELHI_GRADE NEWDELHI_WIND NEWDELHI_PRES NEWDELHI_CI NEWDELHI_DP NEWDELHI_POCI REUNION_LAT REUNION_LON REUNION_TYPE REUNION_WIND REUNION_PRES REUNION_TNUM REUNION_CI REUNION_RMW REUNION_R34_NE REUNION_R34_SE REUNION_R34_SW REUNION_R34_NW REUNION_R50_NE REUNION_R50_SE REUNION_R50_SW REUNION_R50_NW REUNION_R64_NE REUNION_R64_SE REUNION_R64_SW REUNION_R64_NW BOM_LAT BOM_LON BOM_TYPE BOM_WIND BOM_PRES BOM_TNUM BOM_CI BOM_RMW BOM_R34_NE BOM_R34_SE BOM_R34_SW BOM_R34_NW BOM_R50_NE BOM_R50_SE BOM_R50_SW BOM_R50_NW BOM_R64_NE BOM_R64_SE BOM_R64_SW BOM_R64_NW BOM_ROCI BOM_POCI BOM_EYE BOM_POS_METHOD BOM_PRES_METHOD NADI_LAT NADI_LON NADI_CAT NADI_WIND NADI_PRES WELLINGTON_LAT WELLINGTON_LON WELLINGTON_WIND WELLINGTON_PRES DS824_LAT DS824_LON DS824_STAGE DS824_WIND DS824_PRES TD9636_LAT TD9636_LON TD9636_STAGE TD9636_WIND TD9636_PRES TD9635_LAT TD9635_LON TD9635_WIND TD9635_PRES TD9635_ROCI NEUMANN_LAT NEUMANN_LON NEUMANN_CLASS NEUMANN_WIND NEUMANN_PRES MLC_LAT MLC_LON MLC_CLASS MLC_WIND MLC_PRES USA_GUST BOM_GUST BOM_GUST_PER REUNION_GUST REUNION_GUST_PER USA_SEAHGT USA_SEARAD_NE USA_SEARAD_SE USA_SEARAD_SW USA_SEARAD_NW STORM_SPEED STORM_DIR
1923154N11126 1923 34 WP MM NOT_NAMED 1923-06-03 10:00:00 NR 11.2000 125.600 main 10 10 __________O___ -1 11.2000 125.600 4 1 300
1923154N11126 1923 34 WP MM NOT_NAMED 1923-06-03 12:00:00 NR 11.2197 125.567 main 10 0 __________P___ -1 11.2197 125.567 4 1 303
1923154N11126 1923 34 WP MM NOT_NAMED 1923-06-03 15:00:00 NR 11.2606 125.504 main 0 0 __________P___ -1 11.2606 125.504 4 2 306
1923154N11126 1923 34 WP MM NOT_NAMED 1923-06-03 18:00:00 NR 11.3307 125.410 main 0 0 __________P___ -1 11.3307 125.410 4 3 308
1923154N11126 1923 34 WP MM NOT_NAMED 1923-06-03 21:00:00 NR 11.4476 125.264 main 0 0 __________P___ -1 11.4476 125.264 4 4 310
1923154N11126 1923 34 WP MM NOT_NAMED 1923-06-03 22:00:00 NR 11.5000 125.200 main 0 0 __________O___ -1 11.5000 125.200 4 6 310
1923154N11126 1923 34 WP MM NOT_NAMED 1923-06-04 00:00:00 NR 11.6273 125.049 main 0 0 __________P___ -1 11.6273 125.049 4 7 312
1923154N11126 1923 34 WP MM NOT_NAMED 1923-06-04 03:00:00 NR 11.8684 124.778 main 0 0 __________P___ -1 11.8684 124.778 4 8 314
1923154N11126 1923 34 WP MM NOT_NAMED 1923-06-04 06:00:00 NR 12.1585 124.481 main 0 0 __________P___ -1 12.1585 124.481 4 8 317
1923154N11126 1923 34 WP MM NOT_NAMED 1923-06-04 09:00:00 NR 12.4851 124.190 main 10 0 __________P___ -1 12.4851 124.190 4 9 320
1923154N11126 1923 34 WP MM NOT_NAMED 1923-06-04 10:00:00 NR 12.6000 124.100 main 0 0 __________O___ -1 12.6000 124.100 4 8 325
1923154N11126 1923 34 WP MM NOT_NAMED 1923-06-04 12:00:00 NR 12.8271 123.944 main 0 0 __________P___ -1 12.8271 123.944 4 8 329
1923154N11126 1923 34 WP MM NOT_NAMED 1923-06-04 15:00:00 NR 13.1930 123.729 main 0 0 __________P___ -1 13.1930 123.729 4 9 332
1923154N11126 1923 34 WP MM NOT_NAMED 1923-06-04 18:00:00 NR 13.5782 123.534 main 0 0 __________P___ -1 13.5782 123.534 4 9 335
1923154N11126 1923 34 WP MM NOT_NAMED 1923-06-04 21:00:00 NR 13.9701 123.356 main 10 0 __________P___ -1 13.9701 123.356 4 9 336
1923154N11126 1923 34 WP MM NOT_NAMED 1923-06-04 22:00:00 NR 14.1000 123.300 main 11 11 __________O___ -1 14.1000 123.300 4 9 333
1923154N11126 1923 34 WP MM NOT_NAMED 1923-06-05 00:00:00 NR 14.3474 123.157 main 31 31 __________P___ -1 14.3474 123.157 4 8 332
1923154N11126 1923 34 WP MM NOT_NAMED 1923-06-05 03:00:00 NR 14.7184 122.955 main 57 55 __________P___ -1 14.7184 122.955 4 8 335
1923154N11126 1923 34 WP MM NOT_NAMED 1923-06-05 06:00:00 NR 15.0921 122.795 main 100 92 __________P___ -1 15.0921 122.795 4 8 342
1923154N11126 1923 34 WP MM NOT_NAMED 1923-06-05 09:00:00 NR 15.4716 122.708 main 92 85 __________P___ -1 15.4716 122.708 4 8 350
1923154N11126 1923 34 WP MM NOT_NAMED 1923-06-05 10:00:00 NR 15.6000 122.700 main 85 63 __________O___ -1 15.6000 122.700 4 8 0
1923154N11126 1923 34 WP MM NOT_NAMED 1923-06-05 12:00:00 NR 15.8634 122.705 main 63 54 __________P___ -1 15.8634 122.705 4 8 7
1923154N11126 1923 34 WP MM NOT_NAMED 1923-06-05 15:00:00 NR 16.2649 122.788 main 63 54 __________P___ -1 16.2649 122.788 4 8 17
1923154N11126 1923 34 WP MM NOT_NAMED 1923-06-05 18:00:00 NR 16.6687 122.956 main 57 54 __________P___ -1 16.6687 122.956 4 9 26
1923154N11126 1923 34 WP MM NOT_NAMED 1923-06-05 21:00:00 NR 17.0686 123.202 main 75 75 __________P___ -1 17.0686 123.202 4 9 32
1923154N11126 1923 34 WP MM NOT_NAMED 1923-06-05 22:00:00 NR 17.2000 123.300 main 87 87 __________O___ -1 17.2000 123.300 4 10 37
1923154N11126 1923 34 WP MM NOT_NAMED 1923-06-06 00:00:00 NR 17.4611 123.509 main 118 118 __________P___ -1 17.4611 123.509 4 10 41
1923154N11126 1923 34 WP MM NOT_NAMED 1923-06-06 03:00:00 NR 17.8466 123.887 main 168 172 __________P___ -1 17.8466 123.887 4 11 45
1923154N11126 1923 34 WP MM NOT_NAMED 1923-06-06 06:00:00 NR 18.2215 124.312 main 211 211 __________P___ -1 18.2215 124.312 4 11 48
1923154N11126 1923 34 WP MM NOT_NAMED 1923-06-06 09:00:00 NR 18.5830 124.754 main 264 264 __________P___ -1 18.5830 124.754 4 11 49
1923154N11126 1923 34 WP MM NOT_NAMED 1923-06-06 10:00:00 NR 18.7000 124.900 main 276 276 __________O___ -1 18.7000 124.900 4 10 48
1923154N11126 1923 34 WP MM NOT_NAMED 1923-06-06 12:00:00 NR 18.9277 125.154 main 310 310 __________P___ -1 18.9277 125.154 4 10 47
1923154N11126 1923 34 WP MM NOT_NAMED 1923-06-06 15:00:00 NR 19.2568 125.535 main 351 361 __________P___ -1 19.2568 125.535 4 10 48
1923154N11126 1923 34 WP MM NOT_NAMED 1923-06-06 18:00:00 NR 19.5767 125.928 main 401 411 __________P___ -1 19.5767 125.928 4 10 50
1923154N11126 1923 34 WP MM NOT_NAMED 1923-06-06 21:00:00 NR 19.8938 126.350 main 462 462 __________P___ -1 19.8938 126.350 4 10 52
1923154N11126 1923 34 WP MM NOT_NAMED 1923-06-06 22:00:00 NR 20.0000 126.500 main 475 475 __________O___ -1 20.0000 126.500 4 11 54
1923154N11126 1923 34 WP MM NOT_NAMED 1923-06-07 00:00:00 NR 20.2140 126.819 main 513 513 __________P___ -1 20.2140 126.819 4 11 56
1923154N11126 1923 34 WP MM NOT_NAMED 1923-06-07 03:00:00 NR 20.5349 127.329 main 574 588 __________P___ -1 20.5349 127.329 4 12 57
1923154N11126 1923 34 WP MM NOT_NAMED 1923-06-07 06:00:00 NR 20.8586 127.866 main 649 649 __________P___ -1 20.8586 127.866 4 12 57
1923154N11126 1923 34 WP MM NOT_NAMED 1923-06-07 09:00:00 NR 21.1882 128.416 main 710 710 __________P___ -1 21.1882 128.416 4 12 57
1923154N11126 1923 34 WP MM NOT_NAMED 1923-06-07 10:00:00 NR 21.3000 128.600 main 734 734 __________O___ -1 21.3000 128.600 4 12 58
1923154N11126 1923 34 WP MM NOT_NAMED 1923-06-07 12:00:00 NR 21.5173 128.982 main 781 781 __________P___ -1 21.5173 128.982 4 13 58
1923154N11126 1923 34 WP MM NOT_NAMED 1923-06-07 15:00:00 NR 21.8493 129.562 main 842 838 __________P___ -1 21.8493 129.562 4 13 57
1923154N11126 1923 34 WP MM NOT_NAMED 1923-06-07 18:00:00 NR 22.1967 130.125 main 875 881 __________P___ -1 22.1967 130.125 4 12 54
1923154N11126 1923 34 WP MM NOT_NAMED 1923-06-07 21:00:00 NR 22.5688 130.642 main 911 918 __________P___ -1 22.5688 130.642 4 12 51
1923154N11126 1923 34 WP MM NOT_NAMED 1923-06-07 22:00:00 NR 22.7000 130.800 main 927 894 __________O___ -1 22.7000 130.800 4 12 47
1923154N11126 1923 34 WP MM NOT_NAMED 1923-06-08 00:00:00 NR 22.9689 131.105 main 894 852 __________P___ -1 22.9689 131.105 4 12 43
1923154N11126 1923 34 WP MM NOT_NAMED 1923-06-08 03:00:00 NR 23.3977 131.513 main 852 801 __________P___ -1 23.3977 131.513 4 11 38
1923154N11126 1923 34 WP MM NOT_NAMED 1923-06-08 06:00:00 NR 23.8542 131.856 main 801 760 __________P___ -1 23.8542 131.856 4 11 31
1923154N11126 1923 34 WP MM NOT_NAMED 1923-06-08 09:00:00 NR 24.3349 132.127 main 760 740 __________P___ -1 24.3349 132.127 4 11 26
1923154N11126 1923 34 WP MM NOT_NAMED 1923-06-08 10:00:00 NR 24.5000 132.200 main 740 709 __________O___ -1 24.5000 132.200 4 11 20
1923154N11126 1923 34 WP MM NOT_NAMED 1923-06-08 12:00:00 NR 24.8365 132.321 main 709 646 __________P___ -1 24.8365 132.321 4 11 15
1923154N11126 1923 34 WP MM NOT_NAMED 1923-06-08 15:00:00 NR 25.3545 132.449 main 646 595 __________P___ -1 25.3545 132.449 4 11 10
1923154N11126 1923 34 WP MM NOT_NAMED 1923-06-08 18:00:00 NR 25.8842 132.530 main 595 545 __________P___ -1 25.8842 132.530 4 11 6
1923154N11126 1923 34 WP MM NOT_NAMED 1923-06-08 21:00:00 NR 26.4206 132.584 main 545 524 __________P___ -1 26.4206 132.584 4 11 4
1923154N11126 1923 34 WP MM NOT_NAMED 1923-06-08 22:00:00 NR 26.6000 132.600 main 524 __________O___ -1 26.6000 132.600 4 11 8

Digital Typhoon Data and Search

About IBTrACS Database

This database is a web-friendly format of International Best Track Archive for Climate Stewardship (IBTrACS), a global best track data archive curated by NOAA dating back to 1842.

Updated: 2021-10-08